createdAt,value
2023-04-19T00:02:16.706Z,12.10
2023-04-19T00:04:46.301Z,12.10
2023-04-19T00:07:13.525Z,12.00
2023-04-19T00:09:40.565Z,12.10
2023-04-19T00:12:08.017Z,12.10
2023-04-19T00:14:34.988Z,12.10
2023-04-19T00:17:02.045Z,12.00
2023-04-19T00:19:29.630Z,12.10
2023-04-19T00:21:58.514Z,12.10
2023-04-19T00:24:25.633Z,12.10
2023-04-19T00:26:52.540Z,12.10
2023-04-19T00:29:20.051Z,12.00
2023-04-19T00:31:47.079Z,12.10
2023-04-19T00:34:14.253Z,12.00
2023-04-19T00:36:41.459Z,12.10
2023-04-19T00:39:10.186Z,12.10
2023-04-19T00:41:37.245Z,12.10
2023-04-19T00:44:05.110Z,12.00
2023-04-19T00:46:32.272Z,12.10
2023-04-19T00:48:59.639Z,12.10
2023-04-19T00:51:27.728Z,12.10
2023-04-19T00:53:54.793Z,12.10
2023-04-19T00:56:24.651Z,12.00
2023-04-19T00:58:51.826Z,12.00
2023-04-19T01:01:19.444Z,12.00
2023-04-19T01:03:47.069Z,12.00
2023-04-19T01:06:17.854Z,12.00
2023-04-19T01:08:47.321Z,12.00
2023-04-19T01:11:14.499Z,12.00
2023-04-19T01:13:43.381Z,12.00
2023-04-19T01:16:11.130Z,12.00
2023-04-19T01:18:40.935Z,12.00
2023-04-19T01:21:09.621Z,12.00
2023-04-19T01:23:39.803Z,11.90
2023-04-19T01:26:07.239Z,12.00
2023-04-19T01:28:37.902Z,11.90
2023-04-19T01:31:04.961Z,11.90
2023-04-19T01:33:32.129Z,11.90
2023-04-19T01:36:08.603Z,11.90
2023-04-19T01:38:36.922Z,11.90
2023-04-19T01:41:04.448Z,11.90
2023-04-19T01:43:31.354Z,11.80
2023-04-19T01:45:58.912Z,11.90
2023-04-19T01:48:26.677Z,11.80
2023-04-19T01:50:53.777Z,11.80
2023-04-19T01:53:23.906Z,11.80
2023-04-19T01:55:53.006Z,11.80
2023-04-19T01:58:21.109Z,11.80
2023-04-19T02:00:51.262Z,11.80
2023-04-19T02:03:18.938Z,11.80
2023-04-19T02:05:49.465Z,11.80
2023-04-19T02:08:19.585Z,11.80
2023-04-19T02:10:47.213Z,11.80
2023-04-19T02:13:16.158Z,11.80
2023-04-19T02:15:43.658Z,11.90
2023-04-19T02:18:11.777Z,11.80
2023-04-19T02:20:39.443Z,11.70
2023-04-19T02:23:09.660Z,11.70
2023-04-19T02:25:40.124Z,11.80
2023-04-19T02:28:07.153Z,11.70
2023-04-19T02:30:38.364Z,11.70
2023-04-19T02:33:08.136Z,11.70
2023-04-19T02:35:35.545Z,11.70
2023-04-19T02:38:04.911Z,11.70
2023-04-19T02:40:32.424Z,11.70
2023-04-19T02:42:59.434Z,11.60
2023-04-19T02:45:26.959Z,11.60
2023-04-19T02:47:55.580Z,11.60
2023-04-19T02:50:22.959Z,11.70
2023-04-19T02:52:50.078Z,11.70
2023-04-19T02:55:17.776Z,11.60
2023-04-19T02:57:45.436Z,11.70
2023-04-19T03:00:14.529Z,11.70
2023-04-19T03:02:52.421Z,11.70
2023-04-19T03:05:22.139Z,11.70
2023-04-19T03:07:49.678Z,11.70
2023-04-19T03:10:17.642Z,11.70
2023-04-19T03:12:47.660Z,11.70
2023-04-19T03:15:15.220Z,11.70
2023-04-19T03:17:42.338Z,11.60
2023-04-19T03:20:17.519Z,11.50
2023-04-19T03:22:46.844Z,11.50
2023-04-19T03:25:14.600Z,11.50
2023-04-19T03:27:42.130Z,11.50
2023-04-19T03:30:11.799Z,11.50
2023-04-19T03:32:38.871Z,11.40
2023-04-19T03:35:07.070Z,11.40
2023-04-19T03:37:34.814Z,11.40
2023-04-19T03:40:07.701Z,11.40
2023-04-19T03:42:35.178Z,11.40
2023-04-19T03:45:03.402Z,11.40
2023-04-19T03:47:31.506Z,11.40
2023-04-19T03:49:58.512Z,11.40
2023-04-19T03:52:26.497Z,11.30
2023-04-19T03:54:56.910Z,11.30
2023-04-19T03:57:31.677Z,11.30
2023-04-19T04:00:10.100Z,11.30
2023-04-19T04:02:40.357Z,11.30
2023-04-19T04:05:08.751Z,11.20
2023-04-19T04:07:37.464Z,11.30
2023-04-19T04:10:07.634Z,11.30
2023-04-19T04:12:36.951Z,11.30
2023-04-19T04:15:11.024Z,11.30
2023-04-19T04:17:40.228Z,11.30
2023-04-19T04:20:09.781Z,11.40
2023-04-19T04:22:43.920Z,11.40
2023-04-19T04:25:11.000Z,11.40
2023-04-19T04:27:40.961Z,11.40
2023-04-19T04:30:09.661Z,11.50
2023-04-19T04:32:37.436Z,11.50
2023-04-19T04:35:05.796Z,11.60
2023-04-19T04:37:36.557Z,11.50
2023-04-19T04:40:08.957Z,11.50
2023-04-19T04:42:38.075Z,11.50
2023-04-19T04:45:07.989Z,11.50
2023-04-19T04:47:35.750Z,11.60
2023-04-19T04:50:04.069Z,11.60
2023-04-19T04:52:34.053Z,11.50
2023-04-19T04:55:05.037Z,11.60
2023-04-19T04:57:32.620Z,11.60
2023-04-19T05:00:00.291Z,11.60
2023-04-19T05:02:32.431Z,11.60
2023-04-19T05:04:59.598Z,11.70
2023-04-19T05:07:27.093Z,11.70
2023-04-19T05:09:54.760Z,11.70
2023-04-19T05:12:23.317Z,11.70
2023-04-19T05:14:54.025Z,11.70
2023-04-19T05:17:21.031Z,11.70
2023-04-19T05:19:49.934Z,11.80
2023-04-19T05:22:17.176Z,11.70
2023-04-19T05:24:44.673Z,11.80
2023-04-19T05:27:12.308Z,11.80
2023-04-19T05:29:39.771Z,11.80
2023-04-19T05:32:07.944Z,11.80
2023-04-19T05:34:44.727Z,11.80
2023-04-19T05:37:13.661Z,11.90
2023-04-19T05:39:43.570Z,11.90
2023-04-19T05:42:17.591Z,11.90
2023-04-19T05:44:47.182Z,11.90
2023-04-19T05:47:14.818Z,12.00
2023-04-19T05:49:48.629Z,12.00
2023-04-19T05:52:18.229Z,12.00
2023-04-19T05:54:45.827Z,12.00
2023-04-19T05:57:13.209Z,12.00
2023-04-19T05:59:40.367Z,12.10
2023-04-19T06:02:08.326Z,12.10
2023-04-19T06:04:36.342Z,12.10
2023-04-19T06:07:06.078Z,12.10
2023-04-19T06:09:37.130Z,12.20
2023-04-19T06:12:05.528Z,12.10
2023-04-19T06:14:32.719Z,12.10
2023-04-19T06:17:00.118Z,12.20
2023-04-19T06:19:30.502Z,12.20
2023-04-19T06:22:01.481Z,12.20
2023-04-19T06:24:29.302Z,12.20
2023-04-19T06:26:58.167Z,12.30
2023-04-19T06:29:26.173Z,12.30
2023-04-19T06:31:53.267Z,12.30
2023-04-19T06:34:27.053Z,12.40
2023-04-19T06:36:54.259Z,12.50
2023-04-19T06:39:21.512Z,12.60
2023-04-19T06:41:49.830Z,12.70
2023-04-19T06:44:18.592Z,12.80
2023-04-19T06:46:48.513Z,12.80
2023-04-19T06:49:15.611Z,12.80
2023-04-19T06:51:42.948Z,12.90
2023-04-19T06:54:09.968Z,12.90
2023-04-19T06:56:45.762Z,13.00
2023-04-19T06:59:13.413Z,13.00
2023-04-19T07:01:42.417Z,12.90
2023-04-19T07:04:10.639Z,12.90
2023-04-19T07:06:40.063Z,12.70
2023-04-19T07:09:13.195Z,12.70
2023-04-19T07:11:47.691Z,12.70
2023-04-19T07:14:24.821Z,12.60
2023-04-19T07:16:56.778Z,12.60
2023-04-19T07:19:30.238Z,12.60
2023-04-19T07:21:57.400Z,12.60
2023-04-19T07:24:30.451Z,12.60
2023-04-19T07:26:58.055Z,12.60
2023-04-19T07:29:25.683Z,12.60
2023-04-19T07:34:42.502Z,12.70
2023-04-19T07:37:10.458Z,12.80
2023-04-19T07:39:37.675Z,12.80
2023-04-19T07:42:05.117Z,12.90
2023-04-19T07:44:32.340Z,13.00
2023-04-19T07:46:59.470Z,12.90
2023-04-19T07:49:26.580Z,13.00
2023-04-19T07:51:59.260Z,13.00
2023-04-19T07:54:30.547Z,13.00
2023-04-19T07:56:59.035Z,13.10
2023-04-19T07:59:26.198Z,13.10
2023-04-19T08:01:53.383Z,13.10
2023-04-19T08:04:24.185Z,13.10
2023-04-19T08:06:57.080Z,13.20
2023-04-19T08:09:24.211Z,13.40
2023-04-19T08:11:53.887Z,13.60
2023-04-19T08:14:37.522Z,13.60
2023-04-19T08:17:24.353Z,13.70
2023-04-19T08:19:57.025Z,13.70
2023-04-19T08:22:28.301Z,13.70
2023-04-19T08:24:58.084Z,13.70
2023-04-19T08:27:27.649Z,13.70
2023-04-19T08:29:54.786Z,13.70
2023-04-19T08:32:25.228Z,13.70
2023-04-19T08:34:55.516Z,13.80
2023-04-19T08:37:23.178Z,14.00
2023-04-19T08:39:51.645Z,14.20
2023-04-19T08:42:33.214Z,14.50
2023-04-19T08:47:44.974Z,16.80
2023-04-19T08:50:33.295Z,17.70
2023-04-19T08:53:16.374Z,18.30
2023-04-19T08:58:30.757Z,19.00
2023-04-19T09:01:06.612Z,18.30
2023-04-19T09:03:44.046Z,17.60
2023-04-19T09:06:18.941Z,16.80
2023-04-19T09:08:49.014Z,16.20
2023-04-19T09:11:20.837Z,16.00
2023-04-19T09:13:53.018Z,16.00
2023-04-19T09:16:26.813Z,16.00
2023-04-19T09:19:02.574Z,16.10
2023-04-19T09:21:47.357Z,16.00
2023-04-19T09:24:14.970Z,16.00
2023-04-19T09:26:55.091Z,16.20
2023-04-19T09:29:26.958Z,16.30
2023-04-19T09:32:00.594Z,16.40
2023-04-19T09:34:31.406Z,16.60
2023-04-19T09:37:11.014Z,16.70
2023-04-19T09:45:29.828Z,16.60
2023-04-19T09:48:09.645Z,16.50
2023-04-19T09:51:01.939Z,16.10
2023-04-19T09:53:38.950Z,16.00
2023-04-19T09:56:07.970Z,16.00
2023-04-19T10:01:15.864Z,16.20
2023-04-19T10:03:46.926Z,16.20
2023-04-19T10:06:36.001Z,16.30
2023-04-19T10:09:11.651Z,16.20
2023-04-19T10:11:39.192Z,16.20
2023-04-19T10:14:10.227Z,16.20
2023-04-19T10:16:39.515Z,16.20
2023-04-19T10:19:11.237Z,16.30
2023-04-19T10:21:43.445Z,16.30
2023-04-19T10:24:12.678Z,16.60
2023-04-19T10:30:08.023Z,16.90
2023-04-19T10:32:40.706Z,16.90
2023-04-19T10:35:18.613Z,16.90
2023-04-19T10:38:08.463Z,16.60
2023-04-19T10:40:56.511Z,16.50
2023-04-19T10:43:30.376Z,16.60
2023-04-19T10:46:06.223Z,16.60
2023-04-19T10:48:44.248Z,16.60
2023-04-19T10:51:19.244Z,16.60
2023-04-19T10:53:57.670Z,16.50
2023-04-19T10:57:02.320Z,16.50
2023-04-19T10:59:34.767Z,16.30
2023-04-19T11:02:31.569Z,16.30
2023-04-19T11:05:08.444Z,16.20
2023-04-19T11:07:39.754Z,15.90
2023-04-19T11:10:13.076Z,15.90
2023-04-19T11:12:45.264Z,15.70
2023-04-19T11:15:15.641Z,15.60
2023-04-19T11:18:08.756Z,15.70
2023-04-19T11:20:38.833Z,15.80
2023-04-19T11:23:17.303Z,15.80
2023-04-19T11:25:48.484Z,15.90
2023-04-19T11:28:17.593Z,15.90
2023-04-19T11:30:48.783Z,15.80
2023-04-19T11:33:25.809Z,15.80
2023-04-19T11:35:53.914Z,15.90
2023-04-19T11:41:09.172Z,15.60
2023-04-19T11:43:37.229Z,15.60
2023-04-19T11:46:09.074Z,15.60
2023-04-19T11:48:39.661Z,15.80
2023-04-19T11:51:07.290Z,15.90
2023-04-19T11:53:35.648Z,15.90
2023-04-19T11:56:11.938Z,16.00
2023-04-19T11:58:44.949Z,15.90
2023-04-19T12:01:16.156Z,15.80
2023-04-19T12:03:49.299Z,15.70
2023-04-19T12:06:26.009Z,15.70
2023-04-19T12:08:57.207Z,15.70
2023-04-19T12:14:26.974Z,15.60
2023-04-19T12:17:16.003Z,15.50
2023-04-19T12:20:08.382Z,15.60
2023-04-19T12:22:39.442Z,15.50
2023-04-19T12:25:07.764Z,15.50
2023-04-19T12:27:44.359Z,15.50
2023-04-19T12:30:14.688Z,15.60
2023-04-19T12:32:41.865Z,15.60
2023-04-19T12:35:11.043Z,15.50
2023-04-19T12:37:38.637Z,15.30
2023-04-19T12:40:09.099Z,15.30
2023-04-19T12:42:36.567Z,15.40
2023-04-19T12:45:06.213Z,15.40
2023-04-19T12:47:42.791Z,15.40
2023-04-19T12:50:16.437Z,15.50
2023-04-19T12:52:46.477Z,15.60
2023-04-19T12:55:17.404Z,15.70
2023-04-19T12:57:44.548Z,15.60
2023-04-19T13:02:58.682Z,15.60
2023-04-19T13:05:33.844Z,15.60
2023-04-19T13:08:01.913Z,15.60
2023-04-19T13:10:34.453Z,15.50
2023-04-19T13:13:01.853Z,15.60
2023-04-19T13:15:33.210Z,15.60
2023-04-19T13:18:04.792Z,15.50
2023-04-19T13:20:34.097Z,15.50
2023-04-19T13:23:01.128Z,15.50
2023-04-19T13:25:34.409Z,15.50
2023-04-19T13:28:04.329Z,15.40
2023-04-19T13:30:33.150Z,15.50
2023-04-19T13:33:01.387Z,15.50
2023-04-19T13:35:33.849Z,15.50
2023-04-19T13:38:00.984Z,15.50
2023-04-19T13:40:28.808Z,15.60
2023-04-19T13:42:56.796Z,15.60
2023-04-19T13:45:24.229Z,15.50
2023-04-19T13:47:51.476Z,15.60
2023-04-19T13:50:19.325Z,15.60
2023-04-19T13:52:51.287Z,15.70
2023-04-19T13:55:19.173Z,15.80
2023-04-19T13:57:46.753Z,15.70
2023-04-19T14:00:15.574Z,15.80
2023-04-19T14:02:45.011Z,15.80
2023-04-19T14:05:15.376Z,15.90
2023-04-19T14:07:42.665Z,15.80
2023-04-19T14:10:11.529Z,15.70
2023-04-19T14:12:41.438Z,15.70
2023-04-19T14:15:09.775Z,15.70
2023-04-19T14:17:39.705Z,15.70
2023-04-19T14:22:55.787Z,15.60
2023-04-19T14:25:24.302Z,15.60
2023-04-19T14:27:51.845Z,15.50
2023-04-19T14:30:20.386Z,15.40
2023-04-19T14:32:50.697Z,15.50
2023-04-19T14:35:21.273Z,15.50
2023-04-19T14:40:49.691Z,15.70
2023-04-19T14:43:29.467Z,15.70
2023-04-19T14:48:50.345Z,15.70
2023-04-19T14:51:18.140Z,15.80
2023-04-19T14:53:55.352Z,15.80
2023-04-19T14:56:26.623Z,15.70
2023-04-19T15:01:40.319Z,15.70
2023-04-19T15:04:08.274Z,15.80
2023-04-19T15:06:38.341Z,15.80
2023-04-19T15:09:05.380Z,15.80
2023-04-19T15:11:39.900Z,15.70
2023-04-19T15:14:09.305Z,15.60
2023-04-19T15:16:37.044Z,15.60
2023-04-19T15:19:08.008Z,15.60
2023-04-19T15:21:37.976Z,15.70
2023-04-19T15:24:08.037Z,15.80
2023-04-19T15:26:35.957Z,15.80
2023-04-19T15:29:04.708Z,15.70
2023-04-19T15:31:32.279Z,15.90
2023-04-19T15:34:03.522Z,15.90
2023-04-19T15:36:32.107Z,16.00
2023-04-19T15:38:59.908Z,15.90
2023-04-19T15:41:29.915Z,16.10
2023-04-19T15:43:57.774Z,15.90
2023-04-19T15:46:26.516Z,15.90
2023-04-19T15:48:57.094Z,16.00
2023-04-19T15:51:24.202Z,15.80
2023-04-19T15:53:55.652Z,15.80
2023-04-19T15:56:23.204Z,16.00
2023-04-19T15:58:50.352Z,16.10
2023-04-19T16:01:19.124Z,16.20
2023-04-19T16:03:48.654Z,16.20
2023-04-19T16:06:15.908Z,16.20
2023-04-19T16:08:43.467Z,16.20
2023-04-19T16:11:10.848Z,16.20
2023-04-19T16:13:38.260Z,16.10
2023-04-19T16:16:06.356Z,15.90
2023-04-19T16:18:33.450Z,15.90
2023-04-19T16:21:08.887Z,15.70
2023-04-19T16:23:35.972Z,15.60
2023-04-19T16:26:03.075Z,15.50
2023-04-19T16:28:30.405Z,15.40
2023-04-19T16:30:57.758Z,15.20
2023-04-19T16:33:26.036Z,15.10
2023-04-19T16:35:53.276Z,15.00
2023-04-19T16:38:22.073Z,15.00
2023-04-19T16:40:50.102Z,14.90
2023-04-19T16:43:17.339Z,14.80
2023-04-19T16:45:44.731Z,14.80
2023-04-19T16:48:12.592Z,14.70
2023-04-19T16:50:42.364Z,14.70
2023-04-19T16:53:09.716Z,14.90
2023-04-19T16:55:40.399Z,15.00
2023-04-19T16:58:12.657Z,15.00
2023-04-19T17:00:41.241Z,14.90
2023-04-19T17:03:11.920Z,14.80
2023-04-19T17:08:23.915Z,14.60
2023-04-19T17:10:52.768Z,14.40
2023-04-19T17:13:21.521Z,14.30
2023-04-19T17:15:49.543Z,14.10
2023-04-19T17:18:16.848Z,14.00
2023-04-19T17:20:44.312Z,14.00
2023-04-19T17:23:11.832Z,14.10
2023-04-19T17:25:42.695Z,14.10
2023-04-19T17:28:11.313Z,14.20
2023-04-19T17:30:42.221Z,14.20
2023-04-19T17:33:10.133Z,14.20
2023-04-19T17:35:39.508Z,14.10
2023-04-19T17:38:06.848Z,14.10
2023-04-19T17:40:33.817Z,14.00
2023-04-19T17:43:04.449Z,14.00
2023-04-19T17:45:32.865Z,13.90
2023-04-19T17:48:02.536Z,13.80
2023-04-19T17:50:30.628Z,13.70
2023-04-19T17:52:58.191Z,13.70
2023-04-19T17:55:25.797Z,13.70
2023-04-19T17:57:53.214Z,13.70
2023-04-19T18:03:10.746Z,13.60
2023-04-19T18:05:38.876Z,13.60
2023-04-19T18:08:06.129Z,13.60
2023-04-19T18:10:39.814Z,13.60
2023-04-19T18:13:24.794Z,13.50
2023-04-19T18:15:52.389Z,13.40
2023-04-19T18:18:21.399Z,13.30
2023-04-19T18:20:49.915Z,13.20
2023-04-19T18:23:19.650Z,13.20
2023-04-19T18:25:53.805Z,13.10
2023-04-19T18:28:21.549Z,13.10
2023-04-19T18:30:52.661Z,13.10
2023-04-19T18:33:31.118Z,13.00
2023-04-19T18:36:05.939Z,13.00
2023-04-19T18:38:33.523Z,12.80
2023-04-19T18:41:00.562Z,12.70
2023-04-19T18:43:39.616Z,12.70
2023-04-19T18:46:06.736Z,12.70
2023-04-19T18:48:35.466Z,12.60
2023-04-19T18:51:02.920Z,12.60
2023-04-19T18:53:31.361Z,12.50
2023-04-19T18:56:00.409Z,12.50
2023-04-19T18:58:29.537Z,12.40
2023-04-19T19:00:57.066Z,12.40
2023-04-19T19:08:48.383Z,12.40
2023-04-19T19:14:00.754Z,12.30
2023-04-19T19:16:27.834Z,12.30
2023-04-19T19:18:55.776Z,12.30
2023-04-19T19:21:24.765Z,12.30
2023-04-19T19:23:57.905Z,12.20
2023-04-19T19:26:26.081Z,12.20
2023-04-19T19:28:53.736Z,12.10
2023-04-19T19:34:25.397Z,12.10
2023-04-19T19:37:00.612Z,12.00
2023-04-19T19:39:27.868Z,11.90
2023-04-19T19:44:26.160Z,11.90
2023-04-19T19:46:53.353Z,11.80
2023-04-19T19:49:21.273Z,11.80
2023-04-19T19:51:58.539Z,11.80
2023-04-19T19:54:30.578Z,11.80
2023-04-19T19:59:34.903Z,11.60
2023-04-19T20:02:03.448Z,11.60
2023-04-19T20:04:32.079Z,11.60
2023-04-19T20:07:32.848Z,11.50
2023-04-19T20:09:56.241Z,11.50
2023-04-19T20:12:23.532Z,11.50
2023-04-19T20:14:50.539Z,11.40
2023-04-19T20:17:20.926Z,11.30
2023-04-19T20:19:59.078Z,11.20
2023-04-19T20:22:29.276Z,11.20
2023-04-19T20:24:57.584Z,11.20
2023-04-19T20:27:24.644Z,11.10
2023-04-19T20:29:52.113Z,11.20
2023-04-19T20:32:19.169Z,11.20
2023-04-19T20:34:46.965Z,11.10
2023-04-19T20:37:13.909Z,11.10
2023-04-19T20:42:39.334Z,11.00
2023-04-19T20:45:14.127Z,10.90
2023-04-19T20:47:41.719Z,10.90
2023-04-19T20:50:09.614Z,10.90
2023-04-19T20:52:36.859Z,10.90
2023-04-19T20:55:05.418Z,10.80
2023-04-19T20:57:32.934Z,10.70
2023-04-19T21:00:01.318Z,10.50
2023-04-19T21:02:29.006Z,10.30
2023-04-19T21:04:56.103Z,10.20
2023-04-19T21:07:23.682Z,10.00
2023-04-19T21:09:50.979Z,10.00
2023-04-19T21:12:18.082Z,9.90
2023-04-19T21:14:47.859Z,9.80
2023-04-19T21:17:17.695Z,9.70
2023-04-19T21:19:48.049Z,9.50
2023-04-19T21:22:15.143Z,9.40
2023-04-19T21:24:42.100Z,9.40
2023-04-19T21:27:09.777Z,9.50
2023-04-19T21:29:36.862Z,9.60
2023-04-19T21:32:04.229Z,9.60
2023-04-19T21:34:32.662Z,9.50
2023-04-19T21:36:59.918Z,9.50
2023-04-19T21:39:29.797Z,9.40
2023-04-19T21:41:57.899Z,9.50
2023-04-19T21:44:25.802Z,9.30
2023-04-19T21:46:52.913Z,9.20
2023-04-19T21:49:23.685Z,9.20
2023-04-19T21:52:05.967Z,9.20
2023-04-19T21:54:34.506Z,9.30
2023-04-19T21:57:05.523Z,9.40
2023-04-19T21:59:35.083Z,9.40
2023-04-19T22:02:02.222Z,9.50
2023-04-19T22:04:32.207Z,9.50
2023-04-19T22:07:03.958Z,9.70
2023-04-19T22:09:40.473Z,9.50
2023-04-19T22:12:12.273Z,9.40
2023-04-19T22:14:39.957Z,9.20
2023-04-19T22:17:07.623Z,9.00
2023-04-19T22:19:35.463Z,8.90
2023-04-19T22:22:09.748Z,8.90
2023-04-19T22:24:53.826Z,8.80
2023-04-19T22:27:23.994Z,8.80
2023-04-19T22:29:59.942Z,8.70
2023-04-19T22:32:27.495Z,8.50
2023-04-19T22:34:54.599Z,8.50
2023-04-19T22:37:23.385Z,8.60
2023-04-19T22:39:53.539Z,8.60
2023-04-19T22:42:20.597Z,8.60
2023-04-19T22:44:47.794Z,8.40
2023-04-19T22:47:15.167Z,8.40
2023-04-19T22:49:43.514Z,8.30
2023-04-19T22:52:12.066Z,8.20
2023-04-19T22:57:28.653Z,8.10
2023-04-19T22:59:56.369Z,8.10
2023-04-19T23:02:23.700Z,8.10
2023-04-19T23:05:06.488Z,8.20
2023-04-19T23:07:34.304Z,8.10
2023-04-19T23:10:10.636Z,8.00
2023-04-19T23:12:40.772Z,7.90
2023-04-19T23:15:11.674Z,7.90
2023-04-19T23:17:41.912Z,7.80
2023-04-19T23:20:11.734Z,7.80
2023-04-19T23:22:42.342Z,7.80
2023-04-19T23:25:11.226Z,7.90
2023-04-19T23:27:38.808Z,7.90
2023-04-19T23:30:08.681Z,8.00
2023-04-19T23:32:38.270Z,8.10
2023-04-19T23:35:06.955Z,8.10
2023-04-19T23:37:37.711Z,8.10
2023-04-19T23:40:07.849Z,8.00
2023-04-19T23:42:39.255Z,8.10
2023-04-19T23:45:18.492Z,8.10
2023-04-19T23:47:48.914Z,8.10
2023-04-19T23:50:20.890Z,8.20
2023-04-19T23:52:48.319Z,8.30
2023-04-19T23:55:16.198Z,8.30
2023-04-19T23:57:45.023Z,8.40
